Red Mesa, Arizona
Current Conditions -  °F | °C
As of 4:53 AM on Monday 22 Dec 2014 (Local Time) from KCEZ Reporting Station
Overcast Overcast  
Wind Chill: 28°   Ceiling: 7000
Heat Index: 33°   Visibility: 10mi
Dew Point: 30°   Wind: 6mph
Humidity: 89%   Direction: 60°ENE
Pressure: 29.95"   Gusts: NA
Location:  36.7518°N, 109.365°W
Report Text: KCEZ 221153Z AUTO 06005KT 10SM BKN070 OVC090 01/M01 A2995 RMK AO2 SLP130 T00061011 10028 21011 58003
Loading
Personal Weather Stations






























Interactive Weather Map New forecast layout! Learn more

10-Day Weather Forecast

Advertisements
Track Severe Weather on mobile